Big Torch Key, Florida
Current Conditions -  °F | °C
As of 5:53 PM on Monday 22 Dec 2014 (Local Time) from KNQX Reporting Station
Broken Clouds Broken Clouds  
Wind Chill: 24°   Ceiling: 18000
Heat Index: 24°   Visibility: 10mi
Dew Point: 22°   Wind: 8mph
Humidity: 85%   Direction: 150°SSE
Pressure: 29.94"   Gusts: NA
Location:  24.6465°N, 81.5399°W
Report Text: KNQX 222253Z 15007KT 10SM FEW030 SCT060 BKN180 24/22 A2994 RMK AO2 SLP138 T02440217
Loading
Personal Weather Stations






























Interactive Weather Map New forecast layout! Learn more

10-Day Weather Forecast

Advertisements
Track Severe Weather on mobile